Latest Weather Observations for Tuggeranong

IDN60801

Issued at 9:35 pm EST Sunday 21 September 2014 (issued every 30 minutes, with the page automatically refreshed every 10 minutes)

About weather observations | Map of weather stations | Latest weather observations for NSW | Other Formats
Station Details ID: 070339 Name: TUGGERANONG (ISABELLA PLAINS) AWS Lat: -35.42 Lon: 149.09 Height: 586.7 m
Data from the previous 72 hours. | See also: Recent months at Tuggeranong
Date/Time
EST
Temp
°C
App
Temp
°C
Dew
Point
Rel
Hum
%
Delta-T
°C
Wind Press
QNH
hPa
Press
MSL
hPa
Rain
since 9 am
mm
Dir
 
Spd
km/h
Gust
km/h
Spd
kts
Gust
kts
21/09:30pm 11.0 8.2 6.9 76 2.0 NE 11 19 6 10 1030.0 1030.1 0.0
21/09:00pm 11.1 9.2 6.6 74 2.2 NE 6 9 3 5 1029.6 1029.6 0.0
21/08:30pm 12.2 10.2 7.1 71 2.5 ENE 7 11 4 6 1029.3 1029.3 0.0
21/08:00pm 12.7 10.3 7.2 69 2.7 ESE 9 13 5 7 1028.9 1028.9 0.0
21/07:30pm 13.6 11.3 7.4 66 3.1 E 9 15 5 8 1028.6 1028.6 0.0
21/07:00pm 14.1 13.3 6.7 61 3.7 CALM 0 0 0 0 1028.0 1028.0 0.0
21/06:30pm 15.0 12.9 6.6 57 4.2 NW 7 11 4 6 1027.6 1027.6 0.0
21/06:00pm 15.4 13.3 6.7 56 4.4 WSW 7 11 4 6 1027.1 1027.1 0.0
21/05:30pm 16.1 13.6 6.5 53 4.8 W 9 15 5 8 1026.9 1026.8 0.0
21/05:00pm 16.7 13.7 6.2 50 5.3 NW 11 15 6 8 1026.7 1026.6 0.0
21/04:30pm 17.4 14.9 6.6 49 5.5 W 9 13 5 7 1026.6 1026.5 0.0
21/04:00pm 17.6 15.5 6.5 48 5.6 NNW 7 17 4 9 1026.6 1026.5 0.0
21/03:30pm 17.6 15.5 6.5 48 5.7 NE 7 15 4 8 1026.7 1026.6 0.0
21/03:00pm 17.7 15.0 7.2 50 5.4 WNW 11 17 6 9 1026.7 1026.6 0.0
21/02:30pm 17.5 14.2 6.4 48 5.6 WSW 13 20 7 11 1026.9 1026.8 0.0
21/02:00pm 17.1 14.6 6.6 50 5.3 WNW 9 15 5 8 1027.2 1027.2 0.0
21/01:30pm 16.8 13.6 6.9 52 5.1 SW 13 19 7 10 1027.6 1027.6 0.0
21/01:00pm 16.6 14.6 6.4 51 5.1 NE 6 15 3 8 1028.1 1028.1 0.0
21/12:30pm 15.9 13.5 5.2 49 5.3 E 7 17 4 9 1028.5 1028.4 0.0
21/12:00pm 14.1 11.2 4.4 52 4.6 SW 9 13 5 7 1029.2 1029.2 0.0
21/11:30am 13.7 11.2 4.6 54 4.3 S 7 15 4 8 1029.5 1029.5 0.0
21/11:00am 13.6 11.1 4.5 54 4.3 WSW 7 13 4 7 1029.9 1029.9 0.0
21/10:30am 12.7 9.7 4.2 56 4.0 N 9 13 5 7 1030.4 1030.4 0.0
21/10:00am 12.6 10.1 3.8 55 4.1 NE 6 11 3 6 1030.7 1030.7 0.0
21/09:30am 10.7 8.2 3.7 62 3.2 ESE 6 9 3 5 1030.8 1030.8 0.0
21/08:30am 9.6 7.0 4.0 68 2.5 SSW 7 37 4 20 1031.0 1031.0 0.0
21/08:00am 8.2 5.7 4.0 75 1.9 WSW 6 9 3 5 1030.9 1030.9 0.0
21/07:30am 6.7 3.9 3.1 78 1.6 W 7 9 4 5 1030.5 1030.5 0.0
21/07:00am 6.0 3.1 2.6 79 1.4 WSW 7 9 4 5 1029.9 1029.9 0.0
21/06:30am 5.9 3.2 2.9 81 1.3 WSW 6 7 3 4 1029.3 1029.3 0.0
21/06:00am 5.9 4.4 2.9 81 1.3 WSW 0 4 0 2 1028.8 1028.8 0.0
21/05:30am 5.8 3.2 3.0 82 1.2 W 6 6 3 3 1028.4 1028.3 0.0
21/05:00am 6.4 3.9 3.7 83 1.2 SW 6 9 3 5 1027.9 1027.9 0.0
21/04:30am 6.5 5.1 3.5 81 1.3 CALM 0 0 0 0 1027.6 1027.6 0.0
21/04:00am 6.5 5.2 4.0 84 1.1 CALM 0 0 0 0 1027.5 1027.5 0.0
21/03:30am 6.1 4.8 3.9 86 1.0 CALM 0 0 0 0 1027.4 1027.4 0.0
21/03:00am 6.0 4.7 4.2 88 0.8 CALM 0 0 0 0 1027.6 1027.6 0.0
21/02:30am 5.6 4.3 4.2 91 0.6 CALM 0 0 0 0 1027.8 1027.8 0.0
21/02:00am 4.4 2.9 2.9 90 0.6 CALM 0 0 0 0 1028.1 1028.1 0.0
21/01:30am 4.8 3.3 3.1 89 0.7 CALM 0 0 0 0 1028.2 1028.2 0.0
21/01:00am 4.6 3.1 2.8 88 0.8 CALM 0 0 0 0 1028.6 1028.6 0.0
21/12:30am 5.2 3.3 3.1 86 0.9 SSE 2 6 1 3 1028.6 1028.6 0.0
21/12:00am 5.5 4.1 3.5 87 0.9 SSE 0 0 0 0 1028.8 1028.8 0.0
 
Date/Time
EST
Temp
°C
App
Temp
°C
Dew
Point
Rel
Hum
%
Delta-T
°C
Wind Press
QNH
hPa
Press
MSL
hPa
Rain
since 9 am
mm
Dir
 
Spd
km/h
Gust
km/h
Spd
kts
Gust
kts
20/11:30pm 5.3 3.8 3.2 86 0.9 CALM 0 0 0 0 1028.7 1028.7 0.0
20/11:00pm 5.9 4.4 3.1 82 1.2 CALM 0 0 0 0 1028.7 1028.7 0.0
20/10:30pm 6.5 5.0 3.1 79 1.5 CALM 0 0 0 0 1028.7 1028.7 0.0
20/10:00pm 8.6 5.7 4.8 77 1.7 E 9 11 5 6 1028.4 1028.3 0.0
20/09:30pm 8.4 6.6 3.7 72 2.1 NE 2 6 1 3 1028.1 1028.1 0.0
20/09:00pm 9.4 5.7 4.2 70 2.4 ENE 13 17 7 9 1027.7 1027.7 0.0
20/08:30pm 9.9 6.5 3.9 66 2.7 ENE 11 17 6 9 1027.3 1027.3 0.0
20/08:00pm 10.5 7.1 3.8 63 3.0 E 11 17 6 9 1026.9 1026.8 0.0
20/07:30pm 11.4 8.4 1.9 52 4.2 E 7 9 4 5 1026.4 1026.4 0.0
20/07:00pm 11.9 8.4 1.5 49 4.5 ENE 9 13 5 7 1025.7 1025.7 0.0
20/06:30pm 12.4 9.3 1.1 46 4.9 SSW 7 11 4 6 1025.0 1024.9 0.0
20/06:00pm 14.0 10.4 0.6 40 5.8 S 9 11 5 6 1024.3 1024.3 0.0
20/05:30pm 15.1 11.2 0.9 38 6.3 S 11 17 6 9 1023.8 1023.7 0.0
20/05:00pm 15.3 11.0 1.1 38 6.3 SSW 13 19 7 10 1023.4 1023.3 0.0
20/04:30pm 16.6 12.6 0.7 34 7.2 SSW 11 19 6 10 1023.1 1023.0 0.0
20/04:00pm 17.7 14.5 0.8 32 7.7 SW 7 15 4 8 1022.7 1022.7 0.0
20/03:30pm 17.5 14.0 1.5 34 7.4 W 9 15 5 8 1022.4 1022.3 0.0
20/03:00pm 17.5 14.7 2.3 36 7.1 SW 6 11 3 6 1022.4 1022.3 0.0
20/02:30pm 17.1 14.0 1.5 35 7.2 SW 7 13 4 7 1022.6 1022.5 0.0
20/02:00pm 17.0 14.0 2.2 37 6.9 SSW 7 13 4 7 1022.7 1022.7 0.0
20/01:30pm 16.2 12.7 1.1 36 6.8 S 9 13 5 7 1023.0 1022.9 0.0
20/01:00pm 15.3 11.6 -0.1 35 6.7 ESE 9 13 5 7 1023.3 1023.2 0.0
20/12:30pm 14.9 11.3 0.7 38 6.3 WSW 9 13 5 7 1023.7 1023.6 0.0
20/12:00pm 14.6 11.5 1.5 41 5.9 NNE 7 11 4 6 1024.0 1023.9 0.0
20/11:30am 13.4 10.4 0.8 42 5.5 SW 6 11 3 6 1024.3 1024.3 0.0
20/11:00am 13.2 9.8 2.1 47 5.0 SSW 9 15 5 8 1024.6 1024.6 0.0
20/10:30am 12.1 7.9 1.7 49 4.6 S 13 19 7 10 1024.9 1024.8 0.0
20/10:00am 11.3 6.6 1.0 49 4.4 S 15 20 8 11 1025.0 1024.9 0.0
20/09:30am 10.5 5.2 2.1 56 3.7 S 19 30 10 16 1025.1 1025.0 0.0
20/09:00am 10.0 4.7 2.1 58 3.4 S 19 26 10 14 1025.1 1025.0 0.0
20/08:30am 9.1 4.2 2.0 61 3.1 S 17 26 9 14 1025.0 1024.9 0.0
20/08:00am 8.1 3.5 1.7 64 2.7 S 15 28 8 15 1024.8 1024.7 0.0
20/07:30am 7.2 3.0 1.9 69 2.2 S 13 22 7 12 1024.5 1024.5 0.0
20/07:00am 6.2 2.4 1.9 74 1.8 S 11 19 6 10 1024.2 1024.2 0.0
20/06:30am 5.1 1.8 2.6 84 1.1 S 9 15 5 8 1023.9 1023.8 0.0
20/06:00am 0.9 -1.1 -0.1 93 0.4 CALM 0 0 0 0 1023.4 1023.3 0.0
20/05:30am 0.9 -1.1 -0.2 92 0.4 CALM 0 0 0 0 1023.0 1022.9 0.0
20/05:00am 1.3 -0.7 0.0 91 0.5 CALM 0 0 0 0 1022.6 1022.5 0.0
20/04:30am 1.1 -1.3 -0.1 92 0.5 WSW 2 7 1 4 1022.1 1022.0 0.0
20/04:00am 1.7 -0.7 -0.1 88 0.7 E 2 7 1 4 1021.8 1021.7 0.0
20/03:30am 2.2 0.2 0.1 86 0.8 CALM 0 0 0 0 1021.8 1021.7 0.0
20/03:00am 3.2 0.2 0.9 85 0.9 WSW 6 7 3 4 1021.7 1021.6 0.0
20/02:30am 1.7 -1.1 -0.1 88 0.7 ESE 4 7 2 4 1021.6 1021.5 0.0
20/02:00am 2.2 0.3 0.4 88 0.7 CALM 0 0 0 0 1021.7 1021.6 0.0
20/01:30am 2.5 0.5 -0.1 83 1.0 CALM 0 0 0 0 1021.9 1021.8 0.0
20/01:00am 3.3 1.4 0.7 83 1.0 CALM 0 0 0 0 1021.9 1021.8 0.0
20/12:30am 4.1 2.3 1.0 80 1.2 CALM 0 0 0 0 1021.8 1021.7 0.0
20/12:00am 4.5 2.7 1.2 79 1.3 CALM 0 0 0 0 1021.7 1021.6 0.0
 
Date/Time
EST
Temp
°C
App
Temp
°C
Dew
Point
Rel
Hum
%
Delta-T
°C
Wind Press
QNH
hPa
Press
MSL
hPa
Rain
since 9 am
mm
Dir
 
Spd
km/h
Gust
km/h
Spd
kts
Gust
kts
19/11:30pm 4.8 1.8 0.9 76 1.6 SSW 6 7 3 4 1021.8 1021.7 0.0
19/11:00pm 5.8 2.7 1.2 72 1.9 SSE 7 9 4 5 1021.9 1021.8 0.0
19/10:30pm 7.5 4.3 0.7 62 2.8 SSW 7 11 4 6 1022.0 1021.9 0.0
19/10:00pm 8.7 4.8 1.4 60 3.1 SSE 11 17 6 9 1021.9 1021.8 0.0
19/09:30pm 7.6 4.8 2.9 72 2.0 SSE 7 11 4 6 1022.0 1021.9 0.0
19/09:00pm 7.4 5.5 2.7 72 2.0 NE 2 7 1 4 1021.9 1021.8 0.0
19/08:30pm 8.1 5.9 3.2 71 2.2 E 4 7 2 4 1021.7 1021.6 0.0
19/08:00pm 7.9 6.4 2.8 70 2.2 CALM 0 0 0 0 1021.5 1021.4 0.0
19/07:30pm 9.6 7.0 3.1 64 2.9 NE 6 9 3 5 1020.8 1020.7 0.0
19/07:00pm 10.1 7.4 3.6 64 2.9 E 7 9 4 5 1020.3 1020.2 0.0
19/06:30pm 11.2 8.5 2.8 56 3.8 ESE 6 7 3 4 1019.9 1019.8 0.0
19/06:00pm 12.6 9.9 2.7 51 4.5 NNW 6 7 3 4 1019.6 1019.4 0.0
19/05:30pm 13.5 9.5 2.7 48 4.9 N 13 19 7 10 1019.3 1019.1 0.0
19/05:00pm 14.5 10.9 2.7 45 5.4 N 11 20 6 11 1019.0 1018.9 0.0
19/04:30pm 15.0 10.9 2.5 43 5.8 NW 13 19 7 10 1018.8 1018.7 0.0
19/04:00pm 15.5 11.8 2.3 41 6.1 NW 11 22 6 12 1018.6 1018.5 0.0
19/03:30pm 15.4 12.1 2.2 41 6.1 NNE 9 17 5 9 1018.5 1018.4 0.0
19/03:00pm 15.6 11.6 3.1 43 5.8 N 13 22 7 12 1018.5 1018.4 0.0
19/02:30pm 15.2 11.3 3.4 45 5.6 N 13 26 7 14 1018.6 1018.5 0.0
19/02:00pm 15.2 10.5 3.0 44 5.7 NNE 17 22 9 12 1018.9 1018.8 0.0
19/01:30pm 14.5 10.6 1.1 40 6.0 WNW 11 19 6 10 1019.0 1018.9 0.0
19/01:00pm 14.6 11.1 1.2 40 6.0 WSW 9 17 5 9 1019.5 1019.3 0.0
19/12:30pm 13.5 9.9 0.9 42 5.5 NNW 9 19 5 10 1020.1 1020.0 0.0
19/12:00pm 13.1 9.4 -0.2 40 5.7 N 9 17 5 9 1020.4 1020.3 0.0
19/11:30am 12.5 8.7 -0.7 40 5.5 NW 9 13 5 7 1020.9 1020.8 0.0
19/11:00am 11.7 7.4 -1.8 39 5.5 W 11 17 6 9 1021.4 1021.3 0.0
19/10:30am 10.7 6.9 -0.4 46 4.6 NE 9 13 5 7 1022.0 1021.9 0.0
19/10:00am 10.2 7.1 0.0 49 4.2 S 6 13 3 7 1022.1 1022.0 0.0
19/09:30am 9.4 6.6 -0.5 50 4.1 NNE 4 7 2 4 1022.3 1022.2 0.0
19/09:00am 7.2 4.2 1.1 65 2.5 SSW 6 9 3 5 1022.6 1022.5 0.0
19/08:30am 5.6 3.3 0.4 69 2.1 S 2 6 1 3 1022.7 1022.7 0.0
19/08:00am 3.6 1.6 -0.4 75 1.5 CALM 0 0 0 0 1022.7 1022.7 0.0
19/07:30am 1.9 -0.2 -0.7 83 1.0 CALM 0 0 0 0 1022.7 1022.7 0.0
19/07:00am 0.3 -1.9 -1.6 87 0.7 CALM 0 0 0 0 1022.5 1022.4 0.0
19/06:30am -0.9 -3.9 -1.9 93 0.3 E 4 6 2 3 1022.3 1022.2 0.0
19/06:00am -1.8 -5.3 -2.9 92 0.3 ESE 6 11 3 6 1021.9 1021.8 0.0
19/05:30am -2.0 -4.4 -3.3 91 0.3 CALM 0 0 0 0 1021.7 1021.6 0.0
19/05:00am -1.5 -3.9 -2.9 90 0.4 CALM 0 0 0 0 1021.3 1021.2 0.0
19/04:30am -0.8 -3.8 -2.2 90 0.5 SSW 4 9 2 5 1021.2 1021.0 0.0
19/04:00am -0.3 -3.3 -1.6 91 0.5 NW 4 7 2 4 1020.9 1020.8 0.0
19/03:30am 0.0 -3.3 -1.0 93 0.4 WSW 6 7 3 4 1020.6 1020.5 0.0
19/03:00am -0.4 -2.6 -1.8 90 0.5 CALM 0 0 0 0 1020.7 1020.6 0.0
19/02:30am -0.6 -4.0 -2.2 89 0.5 WNW 6 7 3 4 1021.1 1020.9 0.0
19/02:00am -0.3 -2.5 -1.7 90 0.5 CALM 0 0 0 0 1021.3 1021.2 0.0
19/01:30am 0.7 -1.4 -0.9 89 0.6 CALM 0 0 0 0 1021.3 1021.2 0.0
19/01:00am 0.8 -1.4 -1.3 86 0.8 CALM 0 0 0 0 1021.6 1021.5 0.0
19/12:30am 1.2 -0.9 -1.0 85 0.8 CALM 0 0 0 0 1021.4 1021.3 0.0
19/12:00am 1.7 -0.4 -0.9 83 1.0 CALM 0 0 0 0 1021.6 1021.5 0.0
 
Date/Time
EST
Temp
°C
App
Temp
°C
Dew
Point
Rel
Hum
%
Delta-T
°C
Wind Press
QNH
hPa
Press
MSL
hPa
Rain
since 9 am
mm
Dir
 
Spd
km/h
Gust
km/h
Spd
kts
Gust
kts
18/11:30pm 2.1 -0.3 -0.6 82 1.0 WSW 2 7 1 4 1021.6 1021.5 0.0
18/11:00pm 2.5 0.4 -0.6 80 1.2 CALM 0 0 0 0 1021.6 1021.5 0.0
18/10:30pm 3.7 0.4 0.4 79 1.3 NE 7 7 4 4 1021.3 1021.2 0.0
18/10:00pm 4.1 1.8 0.6 78 1.4 ESE 2 9 1 5 1021.4 1021.3 0.0

Other Formats:

Comma delimited format used in spreadsheet applications
http://www.bom.gov.au/fwo/IDN60801/IDN60801.94925.axf

JavaScript Object Notation format (JSON) in row-major order
http://www.bom.gov.au/fwo/IDN60801/IDN60801.94925.json